sensor_id;sensor_type;location;lat;lon;timestamp;temperature;humidity
20035;DHT22;10178;48.034;9.800;2022-08-01T00:01:36;22.30;99.90
20035;DHT22;10178;48.034;9.800;2022-08-01T00:04:02;22.40;99.90
20035;DHT22;10178;48.034;9.800;2022-08-01T00:06:28;21.40;99.90
20035;DHT22;10178;48.034;9.800;2022-08-01T00:08:54;21.70;99.90
20035;DHT22;10178;48.034;9.800;2022-08-01T00:11:20;21.30;99.90
20035;DHT22;10178;48.034;9.800;2022-08-01T00:13:46;21.40;99.90
20035;DHT22;10178;48.034;9.800;2022-08-01T00:16:12;21.90;99.90
20035;DHT22;10178;48.034;9.800;2022-08-01T00:18:37;22.40;99.90
20035;DHT22;10178;48.034;9.800;2022-08-01T00:21:03;22.60;99.90
20035;DHT22;10178;48.034;9.800;2022-08-01T00:23:29;22.80;99.90
20035;DHT22;10178;48.034;9.800;2022-08-01T00:25:55;22.90;99.90
20035;DHT22;10178;48.034;9.800;2022-08-01T00:28:20;22.90;99.90
20035;DHT22;10178;48.034;9.800;2022-08-01T00:30:46;22.00;99.90
20035;DHT22;10178;48.034;9.800;2022-08-01T00:33:12;22.30;99.90
20035;DHT22;10178;48.034;9.800;2022-08-01T00:35:37;21.90;99.90
20035;DHT22;10178;48.034;9.800;2022-08-01T00:38:03;22.10;99.90
20035;DHT22;10178;48.034;9.800;2022-08-01T00:40:28;22.10;99.90
20035;DHT22;10178;48.034;9.800;2022-08-01T00:42:54;22.30;99.90
20035;DHT22;10178;48.034;9.800;2022-08-01T00:45:20;22.30;99.90
20035;DHT22;10178;48.034;9.800;2022-08-01T00:47:45;21.90;99.90
20035;DHT22;10178;48.034;9.800;2022-08-01T00:50:12;20.40;99.90
20035;DHT22;10178;48.034;9.800;2022-08-01T00:52:39;20.70;99.90
20035;DHT22;10178;48.034;9.800;2022-08-01T00:55:05;20.10;99.90
20035;DHT22;10178;48.034;9.800;2022-08-01T00:57:32;20.20;99.90
20035;DHT22;10178;48.034;9.800;2022-08-01T00:59:57;20.30;99.90
20035;DHT22;10178;48.034;9.800;2022-08-01T01:02:23;20.60;99.90
20035;DHT22;10178;48.034;9.800;2022-08-01T01:04:49;20.60;99.90
20035;DHT22;10178;48.034;9.800;2022-08-01T01:07:21;20.40;99.90
20035;DHT22;10178;48.034;9.800;2022-08-01T01:10:08;20.00;99.90
20035;DHT22;10178;48.034;9.800;2022-08-01T01:12:48;19.50;99.90
20035;DHT22;10178;48.034;9.800;2022-08-01T01:17:59;19.00;99.90
20035;DHT22;10178;48.034;9.800;2022-08-01T01:20:34;18.60;99.90
20035;DHT22;10178;48.034;9.800;2022-08-01T01:29:25;19.60;99.90
20035;DHT22;10178;48.034;9.800;2022-08-01T01:32:04;20.30;99.90
20035;DHT22;10178;48.034;9.800;2022-08-01T01:34:33;20.70;99.90
20035;DHT22;10178;48.034;9.800;2022-08-01T01:37:01;20.10;99.90
20035;DHT22;10178;48.034;9.800;2022-08-01T01:39:29;19.70;99.90
20035;DHT22;10178;48.034;9.800;2022-08-01T01:41:57;20.20;99.90
20035;DHT22;10178;48.034;9.800;2022-08-01T01:44:25;19.40;99.90
20035;DHT22;10178;48.034;9.800;2022-08-01T01:46:52;19.80;99.90
20035;DHT22;10178;48.034;9.800;2022-08-01T01:49:21;19.00;99.90
20035;DHT22;10178;48.034;9.800;2022-08-01T01:51:50;19.70;99.90
20035;DHT22;10178;48.034;9.800;2022-08-01T01:54:17;19.00;99.90
20035;DHT22;10178;48.034;9.800;2022-08-01T01:56:44;18.90;99.90
20035;DHT22;10178;48.034;9.800;2022-08-01T01:59:19;19.50;99.90
20035;DHT22;10178;48.034;9.800;2022-08-01T02:01:48;19.40;99.90
20035;DHT22;10178;48.034;9.800;2022-08-01T02:04:16;19.70;99.90
20035;DHT22;10178;48.034;9.800;2022-08-01T02:06:43;20.20;99.90
20035;DHT22;10178;48.034;9.800;2022-08-01T02:09:15;19.80;99.90
20035;DHT22;10178;48.034;9.800;2022-08-01T02:11:41;20.00;99.90
20035;DHT22;10178;48.034;9.800;2022-08-01T02:14:08;20.30;99.90
20035;DHT22;10178;48.034;9.800;2022-08-01T02:16:36;19.90;99.90
20035;DHT22;10178;48.034;9.800;2022-08-01T02:19:02;19.80;99.90
20035;DHT22;10178;48.034;9.800;2022-08-01T02:21:32;19.80;99.90
20035;DHT22;10178;48.034;9.800;2022-08-01T02:24:07;20.00;99.90
20035;DHT22;10178;48.034;9.800;2022-08-01T02:26:37;20.30;99.90
20035;DHT22;10178;48.034;9.800;2022-08-01T02:29:07;20.90;99.90
20035;DHT22;10178;48.034;9.800;2022-08-01T02:31:38;21.40;99.90
20035;DHT22;10178;48.034;9.800;2022-08-01T02:34:09;21.60;99.90
20035;DHT22;10178;48.034;9.800;2022-08-01T02:36:36;21.80;99.90
20035;DHT22;10178;48.034;9.800;2022-08-01T02:39:14;21.90;99.90
20035;DHT22;10178;48.034;9.800;2022-08-01T02:41:43;21.90;99.90
20035;DHT22;10178;48.034;9.800;2022-08-01T02:44:24;20.70;99.90
20035;DHT22;10178;48.034;9.800;2022-08-01T02:47:00;20.20;99.90
20035;DHT22;10178;48.034;9.800;2022-08-01T02:49:31;19.30;99.90
20035;DHT22;10178;48.034;9.800;2022-08-01T02:51:59;18.70;99.90
20035;DHT22;10178;48.034;9.800;2022-08-01T02:54:27;19.20;99.90
20035;DHT22;10178;48.034;9.800;2022-08-01T02:56:56;19.80;99.90
20035;DHT22;10178;48.034;9.800;2022-08-01T02:59:23;19.20;99.90
20035;DHT22;10178;48.034;9.800;2022-08-01T03:01:53;19.10;99.90
20035;DHT22;10178;48.034;9.800;2022-08-01T03:04:21;19.60;99.90
20035;DHT22;10178;48.034;9.800;2022-08-01T03:06:48;20.20;99.90
20035;DHT22;10178;48.034;9.800;2022-08-01T03:09:14;20.60;99.90
20035;DHT22;10178;48.034;9.800;2022-08-01T03:11:42;20.70;99.90
20035;DHT22;10178;48.034;9.800;2022-08-01T03:14:10;20.90;99.90
20035;DHT22;10178;48.034;9.800;2022-08-01T03:16:38;20.30;99.90
20035;DHT22;10178;48.034;9.800;2022-08-01T03:19:05;19.00;99.90
20035;DHT22;10178;48.034;9.800;2022-08-01T03:21:32;18.70;99.90
20035;DHT22;10178;48.034;9.800;2022-08-01T03:24:01;18.90;99.90
20035;DHT22;10178;48.034;9.800;2022-08-01T03:26:30;19.50;99.90
20035;DHT22;10178;48.034;9.800;2022-08-01T03:28:58;19.70;99.90
20035;DHT22;10178;48.034;9.800;2022-08-01T03:31:25;19.60;99.90
20035;DHT22;10178;48.034;9.800;2022-08-01T03:33:51;20.00;99.90
20035;DHT22;10178;48.034;9.800;2022-08-01T03:36:19;20.50;99.90
20035;DHT22;10178;48.034;9.800;2022-08-01T03:38:46;20.70;99.90
20035;DHT22;10178;48.034;9.800;2022-08-01T03:41:18;20.80;99.90
20035;DHT22;10178;48.034;9.800;2022-08-01T03:43:57;21.00;99.90
20035;DHT22;10178;48.034;9.800;2022-08-01T03:46:31;21.10;99.90
20035;DHT22;10178;48.034;9.800;2022-08-01T03:49:01;21.30;99.90
20035;DHT22;10178;48.034;9.800;2022-08-01T03:51:30;21.30;99.90
20035;DHT22;10178;48.034;9.800;2022-08-01T03:53:59;21.40;99.90
20035;DHT22;10178;48.034;9.800;2022-08-01T03:56:26;21.50;99.90
20035;DHT22;10178;48.034;9.800;2022-08-01T03:58:53;21.50;99.90
20035;DHT22;10178;48.034;9.800;2022-08-01T04:01:20;21.50;99.90
20035;DHT22;10178;48.034;9.800;2022-08-01T04:03:46;21.50;99.90
20035;DHT22;10178;48.034;9.800;2022-08-01T04:06:12;21.50;99.90
20035;DHT22;10178;48.034;9.800;2022-08-01T04:08:39;21.50;99.90
20035;DHT22;10178;48.034;9.800;2022-08-01T04:11:07;21.50;99.90
20035;DHT22;10178;48.034;9.800;2022-08-01T04:13:33;21.50;99.90
20035;DHT22;10178;48.034;9.800;2022-08-01T04:15:59;21.50;99.90
20035;DHT22;10178;48.034;9.800;2022-08-01T04:18:25;21.50;99.90
20035;DHT22;10178;48.034;9.800;2022-08-01T04:20:51;21.40;99.90
20035;DHT22;10178;48.034;9.800;2022-08-01T04:23:18;21.40;99.90
20035;DHT22;10178;48.034;9.800;2022-08-01T04:25:46;21.40;99.90
20035;DHT22;10178;48.034;9.800;2022-08-01T04:28:14;21.40;99.90
20035;DHT22;10178;48.034;9.800;2022-08-01T04:30:42;21.40;99.90
20035;DHT22;10178;48.034;9.800;2022-08-01T04:33:12;21.40;99.90
20035;DHT22;10178;48.034;9.800;2022-08-01T04:35:44;21.40;99.90
20035;DHT22;10178;48.034;9.800;2022-08-01T04:38:12;21.40;99.90
20035;DHT22;10178;48.034;9.800;2022-08-01T04:40:40;21.40;99.90
20035;DHT22;10178;48.034;9.800;2022-08-01T04:43:07;21.30;99.90
20035;DHT22;10178;48.034;9.800;2022-08-01T04:45:33;21.30;99.90
20035;DHT22;10178;48.034;9.800;2022-08-01T04:48:00;21.30;99.90
20035;DHT22;10178;48.034;9.800;2022-08-01T04:50:27;21.30;99.90
20035;DHT22;10178;48.034;9.800;2022-08-01T04:52:53;21.30;99.90
20035;DHT22;10178;48.034;9.800;2022-08-01T04:55:18;21.20;99.90
20035;DHT22;10178;48.034;9.800;2022-08-01T04:57:46;21.00;99.90
20035;DHT22;10178;48.034;9.800;2022-08-01T05:00:12;21.10;99.90
20035;DHT22;10178;48.034;9.800;2022-08-01T05:02:38;21.10;99.90
20035;DHT22;10178;48.034;9.800;2022-08-01T05:05:05;21.10;99.90
20035;DHT22;10178;48.034;9.800;2022-08-01T05:07:33;21.10;99.90
20035;DHT22;10178;48.034;9.800;2022-08-01T05:10:05;20.40;99.90
20035;DHT22;10178;48.034;9.800;2022-08-01T05:12:31;19.70;99.90
20035;DHT22;10178;48.034;9.800;2022-08-01T05:14:58;20.10;99.90
20035;DHT22;10178;48.034;9.800;2022-08-01T05:17:23;20.50;99.90
20035;DHT22;10178;48.034;9.800;2022-08-01T05:19:49;20.70;99.90
20035;DHT22;10178;48.034;9.800;2022-08-01T05:22:15;20.90;99.90
20035;DHT22;10178;48.034;9.800;2022-08-01T05:24:40;21.00;99.90
20035;DHT22;10178;48.034;9.800;2022-08-01T05:27:06;21.10;99.90
20035;DHT22;10178;48.034;9.800;2022-08-01T05:29:33;21.10;99.90
20035;DHT22;10178;48.034;9.800;2022-08-01T05:31:59;21.10;99.90
20035;DHT22;10178;48.034;9.800;2022-08-01T05:34:25;21.10;99.90
20035;DHT22;10178;48.034;9.800;2022-08-01T05:36:51;21.20;99.90
20035;DHT22;10178;48.034;9.800;2022-08-01T05:39:17;21.20;99.90
20035;DHT22;10178;48.034;9.800;2022-08-01T05:41:42;21.20;99.90
20035;DHT22;10178;48.034;9.800;2022-08-01T05:44:08;21.20;99.90
20035;DHT22;10178;48.034;9.800;2022-08-01T05:46:34;21.20;99.90
20035;DHT22;10178;48.034;9.800;2022-08-01T05:49:02;21.30;99.90
20035;DHT22;10178;48.034;9.800;2022-08-01T05:51:29;21.40;99.90
20035;DHT22;10178;48.034;9.800;2022-08-01T05:53:55;21.50;99.90
20035;DHT22;10178;48.034;9.800;2022-08-01T05:56:21;21.60;99.90
20035;DHT22;10178;48.034;9.800;2022-08-01T05:58:48;21.70;99.90
20035;DHT22;10178;48.034;9.800;2022-08-01T06:01:15;21.80;99.90
20035;DHT22;10178;48.034;9.800;2022-08-01T06:03:40;21.90;99.90
20035;DHT22;10178;48.034;9.800;2022-08-01T06:06:06;22.00;99.90
20035;DHT22;10178;48.034;9.800;2022-08-01T06:08:31;22.10;99.90
20035;DHT22;10178;48.034;9.800;2022-08-01T06:10:57;22.10;99.90
20035;DHT22;10178;48.034;9.800;2022-08-01T06:13:23;22.20;99.90
20035;DHT22;10178;48.034;9.800;2022-08-01T06:15:49;22.30;99.90
20035;DHT22;10178;48.034;9.800;2022-08-01T06:18:15;22.40;99.90
20035;DHT22;10178;48.034;9.800;2022-08-01T06:20:41;22.50;99.90
20035;DHT22;10178;48.034;9.800;2022-08-01T06:23:07;22.70;99.90
20035;DHT22;10178;48.034;9.800;2022-08-01T06:25:32;22.70;99.90
20035;DHT22;10178;48.034;9.800;2022-08-01T06:27:59;22.90;99.90
20035;DHT22;10178;48.034;9.800;2022-08-01T06:30:25;23.00;99.90
20035;DHT22;10178;48.034;9.800;2022-08-01T06:32:51;23.10;99.90
20035;DHT22;10178;48.034;9.800;2022-08-01T06:35:17;23.20;99.90
20035;DHT22;10178;48.034;9.800;2022-08-01T06:37:43;23.30;99.90
20035;DHT22;10178;48.034;9.800;2022-08-01T06:40:11;23.30;99.90
20035;DHT22;10178;48.034;9.800;2022-08-01T06:42:37;23.50;99.90
20035;DHT22;10178;48.034;9.800;2022-08-01T06:45:08;23.60;99.90
20035;DHT22;10178;48.034;9.800;2022-08-01T06:47:38;23.70;99.90
20035;DHT22;10178;48.034;9.800;2022-08-01T06:50:05;23.90;99.90
20035;DHT22;10178;48.034;9.800;2022-08-01T06:52:32;24.10;99.90
20035;DHT22;10178;48.034;9.800;2022-08-01T06:54:58;24.30;99.90
20035;DHT22;10178;48.034;9.800;2022-08-01T06:57:25;24.30;99.90
20035;DHT22;10178;48.034;9.800;2022-08-01T06:59:50;24.40;99.90
20035;DHT22;10178;48.034;9.800;2022-08-01T07:02:16;24.60;99.90
20035;DHT22;10178;48.034;9.800;2022-08-01T07:04:42;24.60;99.90
20035;DHT22;10178;48.034;9.800;2022-08-01T07:07:07;24.70;99.90
20035;DHT22;10178;48.034;9.800;2022-08-01T07:09:33;24.70;99.90
20035;DHT22;10178;48.034;9.800;2022-08-01T07:12:00;24.80;99.90
20035;DHT22;10178;48.034;9.800;2022-08-01T07:14:25;25.00;99.90
20035;DHT22;10178;48.034;9.800;2022-08-01T07:16:51;25.00;99.90
20035;DHT22;10178;48.034;9.800;2022-08-01T07:19:18;25.10;99.90
20035;DHT22;10178;48.034;9.800;2022-08-01T07:21:44;25.30;99.90
20035;DHT22;10178;48.034;9.800;2022-08-01T07:24:13;25.50;99.90
20035;DHT22;10178;48.034;9.800;2022-08-01T07:26:44;25.50;99.90
20035;DHT22;10178;48.034;9.800;2022-08-01T07:29:10;25.50;99.90
20035;DHT22;10178;48.034;9.800;2022-08-01T07:31:35;25.50;99.90
20035;DHT22;10178;48.034;9.800;2022-08-01T07:34:01;25.50;99.90
20035;DHT22;10178;48.034;9.800;2022-08-01T07:36:27;25.50;99.90
20035;DHT22;10178;48.034;9.800;2022-08-01T07:38:52;25.60;99.90
20035;DHT22;10178;48.034;9.800;2022-08-01T07:41:18;25.70;99.90
20035;DHT22;10178;48.034;9.800;2022-08-01T07:43:44;25.60;99.90
20035;DHT22;10178;48.034;9.800;2022-08-01T07:46:09;25.80;99.90
20035;DHT22;10178;48.034;9.800;2022-08-01T07:48:35;25.90;99.90
20035;DHT22;10178;48.034;9.800;2022-08-01T07:51:00;25.90;99.90
20035;DHT22;10178;48.034;9.800;2022-08-01T07:53:26;26.00;99.90
20035;DHT22;10178;48.034;9.800;2022-08-01T07:55:52;25.80;99.90
20035;DHT22;10178;48.034;9.800;2022-08-01T07:58:18;25.80;99.90
20035;DHT22;10178;48.034;9.800;2022-08-01T08:00:44;25.30;99.90
20035;DHT22;10178;48.034;9.800;2022-08-01T08:03:09;25.60;99.90
20035;DHT22;10178;48.034;9.800;2022-08-01T08:05:35;25.90;99.90
20035;DHT22;10178;48.034;9.800;2022-08-01T08:08:05;25.90;99.90
20035;DHT22;10178;48.034;9.800;2022-08-01T08:10:31;26.10;99.90
20035;DHT22;10178;48.034;9.800;2022-08-01T08:12:56;26.30;99.90
20035;DHT22;10178;48.034;9.800;2022-08-01T08:15:22;26.40;99.90
20035;DHT22;10178;48.034;9.800;2022-08-01T08:17:48;26.90;99.90
20035;DHT22;10178;48.034;9.800;2022-08-01T08:20:14;26.70;99.90
20035;DHT22;10178;48.034;9.800;2022-08-01T08:22:39;25.40;99.90
20035;DHT22;10178;48.034;9.800;2022-08-01T08:25:06;25.00;99.90
20035;DHT22;10178;48.034;9.800;2022-08-01T08:27:32;25.00;99.90
20035;DHT22;10178;48.034;9.800;2022-08-01T08:29:58;25.30;99.90
20035;DHT22;10178;48.034;9.800;2022-08-01T08:32:24;25.70;99.90
20035;DHT22;10178;48.034;9.800;2022-08-01T08:34:49;26.30;99.90
20035;DHT22;10178;48.034;9.800;2022-08-01T08:37:15;26.90;99.90
20035;DHT22;10178;48.034;9.800;2022-08-01T08:39:42;27.20;99.90
20035;DHT22;10178;48.034;9.800;2022-08-01T08:42:10;27.20;99.90
20035;DHT22;10178;48.034;9.800;2022-08-01T08:44:36;27.30;99.90
20035;DHT22;10178;48.034;9.800;2022-08-01T08:47:05;27.60;99.90
20035;DHT22;10178;48.034;9.800;2022-08-01T08:49:33;27.40;99.90
20035;DHT22;10178;48.034;9.800;2022-08-01T08:52:00;27.20;99.90
20035;DHT22;10178;48.034;9.800;2022-08-01T08:54:27;27.20;99.90
20035;DHT22;10178;48.034;9.800;2022-08-01T08:56:54;27.30;99.90
20035;DHT22;10178;48.034;9.800;2022-08-01T08:59:22;27.50;99.90
20035;DHT22;10178;48.034;9.800;2022-08-01T09:01:50;27.70;99.90
20035;DHT22;10178;48.034;9.800;2022-08-01T09:04:16;27.70;99.90
20035;DHT22;10178;48.034;9.800;2022-08-01T09:06:42;27.80;99.90
20035;DHT22;10178;48.034;9.800;2022-08-01T09:09:08;27.60;99.90
20035;DHT22;10178;48.034;9.800;2022-08-01T09:11:35;27.40;99.90
20035;DHT22;10178;48.034;9.800;2022-08-01T09:14:12;27.70;99.90
20035;DHT22;10178;48.034;9.800;2022-08-01T09:16:45;28.00;99.90
20035;DHT22;10178;48.034;9.800;2022-08-01T09:19:16;27.80;99.90
20035;DHT22;10178;48.034;9.800;2022-08-01T09:22:03;27.70;99.90
20035;DHT22;10178;48.034;9.800;2022-08-01T09:24:30;27.60;99.90
20035;DHT22;10178;48.034;9.800;2022-08-01T09:26:57;26.90;99.90
20035;DHT22;10178;48.034;9.800;2022-08-01T09:29:28;26.70;99.90
20035;DHT22;10178;48.034;9.800;2022-08-01T09:31:55;27.10;99.90
20035;DHT22;10178;48.034;9.800;2022-08-01T09:34:29;27.10;99.90
20035;DHT22;10178;48.034;9.800;2022-08-01T09:36:57;27.10;99.90
20035;DHT22;10178;48.034;9.800;2022-08-01T09:39:33;27.40;99.90
20035;DHT22;10178;48.034;9.800;2022-08-01T09:42:22;27.90;99.90
20035;DHT22;10178;48.034;9.800;2022-08-01T09:44:48;27.90;99.90
20035;DHT22;10178;48.034;9.800;2022-08-01T09:47:14;27.60;99.90
20035;DHT22;10178;48.034;9.800;2022-08-01T09:49:42;27.50;99.90
20035;DHT22;10178;48.034;9.800;2022-08-01T09:54:37;27.30;99.90
20035;DHT22;10178;48.034;9.800;2022-08-01T09:57:18;26.80;99.90
20035;DHT22;10178;48.034;9.800;2022-08-01T09:59:53;26.50;99.90
20035;DHT22;10178;48.034;9.800;2022-08-01T10:02:36;26.30;99.90
20035;DHT22;10178;48.034;9.800;2022-08-01T10:05:04;26.40;99.90
20035;DHT22;10178;48.034;9.800;2022-08-01T10:07:30;26.50;99.90
20035;DHT22;10178;48.034;9.800;2022-08-01T10:10:14;26.60;99.90
20035;DHT22;10178;48.034;9.800;2022-08-01T10:12:41;26.90;99.90
20035;DHT22;10178;48.034;9.800;2022-08-01T10:15:08;27.00;99.90
20035;DHT22;10178;48.034;9.800;2022-08-01T10:17:37;27.00;99.90
20035;DHT22;10178;48.034;9.800;2022-08-01T10:20:04;26.90;99.90
20035;DHT22;10178;48.034;9.800;2022-08-01T10:22:31;27.10;99.90
20035;DHT22;10178;48.034;9.800;2022-08-01T10:25:02;27.20;99.90
20035;DHT22;10178;48.034;9.800;2022-08-01T10:27:29;27.30;99.90
20035;DHT22;10178;48.034;9.800;2022-08-01T10:30:02;27.20;99.90
20035;DHT22;10178;48.034;9.800;2022-08-01T10:32:34;27.00;99.90
20035;DHT22;10178;48.034;9.800;2022-08-01T10:35:00;27.10;99.90
20035;DHT22;10178;48.034;9.800;2022-08-01T10:37:26;27.20;99.90
20035;DHT22;10178;48.034;9.800;2022-08-01T10:39:53;27.10;99.90
20035;DHT22;10178;48.034;9.800;2022-08-01T10:42:19;27.10;99.90
20035;DHT22;10178;48.034;9.800;2022-08-01T10:44:46;27.50;99.90
20035;DHT22;10178;48.034;9.800;2022-08-01T10:47:27;27.50;99.90
20035;DHT22;10178;48.034;9.800;2022-08-01T10:50:03;27.50;99.90
20035;DHT22;10178;48.034;9.800;2022-08-01T10:52:29;27.50;99.90
20035;DHT22;10178;48.034;9.800;2022-08-01T10:55:04;27.40;99.90
20035;DHT22;10178;48.034;9.800;2022-08-01T10:57:47;27.20;99.90
20035;DHT22;10178;48.034;9.800;2022-08-01T11:00:22;27.30;99.90
20035;DHT22;10178;48.034;9.800;2022-08-01T11:03:01;27.40;99.90
20035;DHT22;10178;48.034;9.800;2022-08-01T11:05:32;27.30;99.90
20035;DHT22;10178;48.034;9.800;2022-08-01T11:08:02;27.30;99.90
20035;DHT22;10178;48.034;9.800;2022-08-01T11:10:42;27.40;99.90
20035;DHT22;10178;48.034;9.800;2022-08-01T11:13:08;27.30;99.90
20035;DHT22;10178;48.034;9.800;2022-08-01T11:15:36;27.30;99.90
20035;DHT22;10178;48.034;9.800;2022-08-01T11:18:28;27.00;99.90
20035;DHT22;10178;48.034;9.800;2022-08-01T11:21:00;27.00;99.90
20035;DHT22;10178;48.034;9.800;2022-08-01T11:23:28;27.00;99.90
20035;DHT22;10178;48.034;9.800;2022-08-01T11:28:21;27.40;99.90
20035;DHT22;10178;48.034;9.800;2022-08-01T11:31:24;27.10;99.90
20035;DHT22;10178;48.034;9.800;2022-08-01T11:38:42;27.70;99.90
20035;DHT22;10178;48.034;9.800;2022-08-01T11:41:35;27.60;99.90
20035;DHT22;10178;48.034;9.800;2022-08-01T11:44:08;27.60;99.90
20035;DHT22;10178;48.034;9.800;2022-08-01T11:47:00;27.80;99.90
20035;DHT22;10178;48.034;9.800;2022-08-01T11:52:17;28.30;99.90
20035;DHT22;10178;48.034;9.800;2022-08-01T11:57:14;28.00;99.90
20035;DHT22;10178;48.034;9.800;2022-08-01T11:59:46;28.10;99.90
20035;DHT22;10178;48.034;9.800;2022-08-01T12:05:04;27.80;99.90
20035;DHT22;10178;48.034;9.800;2022-08-01T12:07:32;27.20;99.90
20035;DHT22;10178;48.034;9.800;2022-08-01T12:10:11;27.00;99.90
20035;DHT22;10178;48.034;9.800;2022-08-01T12:12:42;27.00;99.90
20035;DHT22;10178;48.034;9.800;2022-08-01T12:15:09;27.10;99.90
20035;DHT22;10178;48.034;9.800;2022-08-01T12:17:40;27.10;99.90
20035;DHT22;10178;48.034;9.800;2022-08-01T12:20:08;27.10;99.90
20035;DHT22;10178;48.034;9.800;2022-08-01T12:22:35;27.10;99.90
20035;DHT22;10178;48.034;9.800;2022-08-01T12:25:11;27.20;99.90
20035;DHT22;10178;48.034;9.800;2022-08-01T12:27:40;27.40;99.90
20035;DHT22;10178;48.034;9.800;2022-08-01T12:30:10;27.20;99.90
20035;DHT22;10178;48.034;9.800;2022-08-01T12:32:38;27.00;99.90
20035;DHT22;10178;48.034;9.800;2022-08-01T12:35:18;27.10;99.90
20035;DHT22;10178;48.034;9.800;2022-08-01T12:37:52;27.20;99.90
20035;DHT22;10178;48.034;9.800;2022-08-01T12:40:26;27.20;99.90
20035;DHT22;10178;48.034;9.800;2022-08-01T12:42:57;27.20;99.90
20035;DHT22;10178;48.034;9.800;2022-08-01T12:45:29;27.40;99.90
20035;DHT22;10178;48.034;9.800;2022-08-01T12:47:56;27.40;99.90
20035;DHT22;10178;48.034;9.800;2022-08-01T12:50:30;27.40;99.90
20035;DHT22;10178;48.034;9.800;2022-08-01T12:52:56;27.40;99.90
20035;DHT22;10178;48.034;9.800;2022-08-01T12:55:24;27.20;99.90
20035;DHT22;10178;48.034;9.800;2022-08-01T13:00:31;26.90;99.90
20035;DHT22;10178;48.034;9.800;2022-08-01T13:03:08;27.00;99.90
20035;DHT22;10178;48.034;9.800;2022-08-01T13:05:48;27.10;99.90
20035;DHT22;10178;48.034;9.800;2022-08-01T13:08:18;27.10;99.90
20035;DHT22;10178;48.034;9.800;2022-08-01T13:10:44;27.10;99.90
20035;DHT22;10178;48.034;9.800;2022-08-01T13:13:11;27.10;99.90
20035;DHT22;10178;48.034;9.800;2022-08-01T13:15:39;27.10;99.90
20035;DHT22;10178;48.034;9.800;2022-08-01T13:21:09;27.10;99.90
20035;DHT22;10178;48.034;9.800;2022-08-01T13:23:36;27.10;99.90
20035;DHT22;10178;48.034;9.800;2022-08-01T13:26:03;27.10;99.90
20035;DHT22;10178;48.034;9.800;2022-08-01T13:28:28;27.10;99.90
20035;DHT22;10178;48.034;9.800;2022-08-01T13:31:06;27.10;99.90
20035;DHT22;10178;48.034;9.800;2022-08-01T13:33:44;27.00;99.90
20035;DHT22;10178;48.034;9.800;2022-08-01T13:36:11;26.80;99.90
20035;DHT22;10178;48.034;9.800;2022-08-01T13:38:37;26.80;99.90
20035;DHT22;10178;48.034;9.800;2022-08-01T13:41:22;26.70;99.90
20035;DHT22;10178;48.034;9.800;2022-08-01T13:43:48;26.70;99.90
20035;DHT22;10178;48.034;9.800;2022-08-01T13:46:14;26.90;99.90
20035;DHT22;10178;48.034;9.800;2022-08-01T13:48:39;27.00;99.90
20035;DHT22;10178;48.034;9.800;2022-08-01T13:51:05;26.90;99.90
20035;DHT22;10178;48.034;9.800;2022-08-01T13:53:31;26.70;99.90
20035;DHT22;10178;48.034;9.800;2022-08-01T13:55:56;26.60;99.90
20035;DHT22;10178;48.034;9.800;2022-08-01T13:58:22;26.50;99.90
20035;DHT22;10178;48.034;9.800;2022-08-01T14:00:48;26.30;99.90
20035;DHT22;10178;48.034;9.800;2022-08-01T14:03:14;26.30;99.90
20035;DHT22;10178;48.034;9.800;2022-08-01T14:05:42;26.30;99.90
20035;DHT22;10178;48.034;9.800;2022-08-01T14:08:08;26.10;99.90
20035;DHT22;10178;48.034;9.800;2022-08-01T14:10:34;26.00;99.90
20035;DHT22;10178;48.034;9.800;2022-08-01T14:13:00;26.10;99.90
20035;DHT22;10178;48.034;9.800;2022-08-01T14:15:26;26.00;99.90
20035;DHT22;10178;48.034;9.800;2022-08-01T14:17:51;25.90;99.90
20035;DHT22;10178;48.034;9.800;2022-08-01T14:20:17;25.90;99.90
20035;DHT22;10178;48.034;9.800;2022-08-01T14:22:48;25.80;99.90
20035;DHT22;10178;48.034;9.800;2022-08-01T14:25:14;25.70;99.90
20035;DHT22;10178;48.034;9.800;2022-08-01T14:27:39;25.60;99.90
20035;DHT22;10178;48.034;9.800;2022-08-01T14:30:07;25.60;99.90
20035;DHT22;10178;48.034;9.800;2022-08-01T14:32:33;25.50;99.90
20035;DHT22;10178;48.034;9.800;2022-08-01T14:35:00;25.50;99.90
20035;DHT22;10178;48.034;9.800;2022-08-01T14:37:26;25.50;99.90
20035;DHT22;10178;48.034;9.800;2022-08-01T14:39:52;25.40;99.90
20035;DHT22;10178;48.034;9.800;2022-08-01T14:42:17;25.30;99.90
20035;DHT22;10178;48.034;9.800;2022-08-01T14:44:43;25.20;99.90
20035;DHT22;10178;48.034;9.800;2022-08-01T14:47:09;25.10;99.90
20035;DHT22;10178;48.034;9.800;2022-08-01T14:49:35;25.00;99.90
20035;DHT22;10178;48.034;9.800;2022-08-01T14:52:00;24.90;99.90
20035;DHT22;10178;48.034;9.800;2022-08-01T14:54:26;24.80;99.90
20035;DHT22;10178;48.034;9.800;2022-08-01T14:56:52;24.70;99.90
20035;DHT22;10178;48.034;9.800;2022-08-01T14:59:19;24.60;99.90
20035;DHT22;10178;48.034;9.800;2022-08-01T15:01:44;24.30;99.90
20035;DHT22;10178;48.034;9.800;2022-08-01T15:04:10;24.30;99.90
20035;DHT22;10178;48.034;9.800;2022-08-01T15:06:36;24.50;99.90
20035;DHT22;10178;48.034;9.800;2022-08-01T15:09:02;24.60;99.90
20035;DHT22;10178;48.034;9.800;2022-08-01T15:11:28;24.30;99.90
20035;DHT22;10178;48.034;9.800;2022-08-01T15:13:54;24.50;99.90
20035;DHT22;10178;48.034;9.800;2022-08-01T15:16:38;24.70;99.90
20035;DHT22;10178;48.034;9.800;2022-08-01T15:19:05;25.10;99.90
20035;DHT22;10178;48.034;9.800;2022-08-01T15:21:31;25.40;99.90
20035;DHT22;10178;48.034;9.800;2022-08-01T15:23:56;25.50;99.90
20035;DHT22;10178;48.034;9.800;2022-08-01T15:26:22;26.10;99.90
20035;DHT22;10178;48.034;9.800;2022-08-01T15:28:48;26.50;99.90
20035;DHT22;10178;48.034;9.800;2022-08-01T15:31:13;26.70;99.90
20035;DHT22;10178;48.034;9.800;2022-08-01T15:33:39;27.00;99.90
20035;DHT22;10178;48.034;9.800;2022-08-01T15:36:05;27.20;99.90
20035;DHT22;10178;48.034;9.800;2022-08-01T15:38:30;27.30;99.90
20035;DHT22;10178;48.034;9.800;2022-08-01T15:40:56;27.10;99.90
20035;DHT22;10178;48.034;9.800;2022-08-01T15:43:22;26.90;99.90
20035;DHT22;10178;48.034;9.800;2022-08-01T15:45:48;27.10;99.90
20035;DHT22;10178;48.034;9.800;2022-08-01T15:48:15;27.20;99.90
20035;DHT22;10178;48.034;9.800;2022-08-01T15:50:40;27.30;99.90
20035;DHT22;10178;48.034;9.800;2022-08-01T15:53:06;27.40;99.90
20035;DHT22;10178;48.034;9.800;2022-08-01T15:55:35;27.50;99.90
20035;DHT22;10178;48.034;9.800;2022-08-01T15:58:02;27.50;99.90
20035;DHT22;10178;48.034;9.800;2022-08-01T16:00:28;27.50;99.90
20035;DHT22;10178;48.034;9.800;2022-08-01T16:02:54;27.50;99.90
20035;DHT22;10178;48.034;9.800;2022-08-01T16:05:21;27.50;99.90
20035;DHT22;10178;48.034;9.800;2022-08-01T16:07:47;27.50;99.90
20035;DHT22;10178;48.034;9.800;2022-08-01T16:10:13;26.80;99.90